This is the latest recevied weather packets stored in our database for station/object OK1TBF-6. If no packets are shown the sender has not sent any weather packets the latest 10 day(s).
| Time | Temp. | Humidity | Pressure | Rain* | Wind** | Luminosity | Snow |
|---|---|---|---|---|---|---|---|
| 1777807211 | 20.56° C | 39% | 1008.9 hPa | 0 mm | - | - | - |
| 1777805711 | 20° C | 42% | 1008.9 hPa | 0 mm | - | - | - |
| 1777805411 | 19.44° C | 43% | 1009.2 hPa | 0 mm | - | - | - |
| 1777804810 | 20° C | 42% | 1009.4 hPa | 0 mm | - | - | - |
| 1777802110 | 19.44° C | 44% | 1009.8 hPa | 0 mm | - | - | - |
| 1777800610 | 18.89° C | 44% | 1010 hPa | 0 mm | - | - | - |
| 1777797010 | 17.78° C | 46% | 1010.1 hPa | 0 mm | - | - | - |
| 1777796410 | 17.78° C | 46% | 1010.3 hPa | 0 mm | - | - | - |
| 1777791908 | 15.56° C | 50% | 1010.2 hPa | 0 mm | - | - | - |
| 1777791309 | 15° C | 52% | 1010.3 hPa | 0 mm | - | - | - |
| 1777789209 | 13.33° C | 52% | 1010.1 hPa | 0 mm | - | - | - |
| 1777788009 | 13.33° C | 52% | 1009.8 hPa | 0 mm | - | - | - |
| 1777785907 | 12.22° C | 53% | 1009.6 hPa | 0 mm | - | - | - |
| 1777785007 | 12.78° C | 51% | 1009.5 hPa | 0 mm | - | - | - |
| 1777782907 | 12.78° C | 50% | 1009.7 hPa | 0 mm | - | - | - |
| 1777780207 | 12.78° C | 47% | 1009.5 hPa | 0 mm | - | - | - |
| 1777779606 | 12.78° C | 46% | 1009.3 hPa | 0 mm | - | - | - |
| 1777777806 | 12.78° C | 46% | 1009.5 hPa | 0 mm | - | - | - |
| 1777777207 | 12.78° C | 47% | 1009.3 hPa | 0 mm | - | - | - |
| 1777774805 | 13.33° C | 46% | 1009.6 hPa | 0 mm | - | - | - |
| 1777774205 | 13.33° C | 46% | 1009.4 hPa | 0 mm | - | - | - |
| 1777771806 | 13.89° C | 44% | 1009.6 hPa | 0 mm | - | - | - |
| 1777771505 | 14.44° C | 44% | 1009.8 hPa | 0 mm | - | - | - |
| 1777766105 | 14.44° C | 41% | 1010.2 hPa | 0 mm | - | - | - |
| 1777765804 | 14.44° C | 41% | 1010.2 hPa | 0 mm | - | - | - |
* Rain latest hour (hover to see other rain measurements)
** Current wind speed in m/s (hover to see current wind gust speed)